sensor_id;sensor_type;location;lat;lon;timestamp;P1;durP1;ratioP1;P2;durP2;ratioP2
6852;SDS011;3465;42.144;24.722;2022-07-12T00:01:59;4.47;;;1.77;;
6852;SDS011;3465;42.144;24.722;2022-07-12T00:04:25;3.78;;;1.70;;
6852;SDS011;3465;42.144;24.722;2022-07-12T00:06:51;2.85;;;1.85;;
6852;SDS011;3465;42.144;24.722;2022-07-12T00:09:16;5.38;;;1.75;;
6852;SDS011;3465;42.144;24.722;2022-07-12T00:11:41;3.53;;;1.70;;
6852;SDS011;3465;42.144;24.722;2022-07-12T00:14:07;2.93;;;1.60;;
6852;SDS011;3465;42.144;24.722;2022-07-12T00:16:33;4.53;;;1.90;;
6852;SDS011;3465;42.144;24.722;2022-07-12T00:18:59;5.47;;;1.90;;
6852;SDS011;3465;42.144;24.722;2022-07-12T00:21:24;4.00;;;1.77;;
6852;SDS011;3465;42.144;24.722;2022-07-12T00:23:50;1.80;;;1.70;;
6852;SDS011;3465;42.144;24.722;2022-07-12T00:26:15;3.60;;;2.00;;
6852;SDS011;3465;42.144;24.722;2022-07-12T00:28:41;2.00;;;1.63;;
6852;SDS011;3465;42.144;24.722;2022-07-12T00:31:06;2.95;;;2.03;;
6852;SDS011;3465;42.144;24.722;2022-07-12T00:33:32;2.47;;;1.83;;
6852;SDS011;3465;42.144;24.722;2022-07-12T00:35:57;2.13;;;1.80;;
6852;SDS011;3465;42.144;24.722;2022-07-12T00:38:22;3.50;;;2.00;;
6852;SDS011;3465;42.144;24.722;2022-07-12T00:40:48;2.33;;;1.70;;
6852;SDS011;3465;42.144;24.722;2022-07-12T00:43:14;1.70;;;1.60;;
6852;SDS011;3465;42.144;24.722;2022-07-12T00:45:41;2.33;;;1.73;;
6852;SDS011;3465;42.144;24.722;2022-07-12T00:48:06;2.60;;;1.93;;
6852;SDS011;3465;42.144;24.722;2022-07-12T00:50:32;2.77;;;1.90;;
6852;SDS011;3465;42.144;24.722;2022-07-12T00:52:58;3.33;;;2.00;;
6852;SDS011;3465;42.144;24.722;2022-07-12T00:55:23;3.80;;;1.70;;
6852;SDS011;3465;42.144;24.722;2022-07-12T00:57:49;2.00;;;1.70;;
6852;SDS011;3465;42.144;24.722;2022-07-12T01:00:16;2.53;;;1.90;;
6852;SDS011;3465;42.144;24.722;2022-07-12T01:02:47;2.50;;;1.93;;
6852;SDS011;3465;42.144;24.722;2022-07-12T01:05:12;2.30;;;1.80;;
6852;SDS011;3465;42.144;24.722;2022-07-12T01:07:38;1.70;;;1.60;;
6852;SDS011;3465;42.144;24.722;2022-07-12T01:10:05;3.53;;;2.10;;
6852;SDS011;3465;42.144;24.722;2022-07-12T01:12:31;2.47;;;1.80;;
6852;SDS011;3465;42.144;24.722;2022-07-12T01:14:57;2.87;;;1.90;;
6852;SDS011;3465;42.144;24.722;2022-07-12T01:17:25;4.67;;;1.90;;
6852;SDS011;3465;42.144;24.722;2022-07-12T01:19:52;2.33;;;1.77;;
6852;SDS011;3465;42.144;24.722;2022-07-12T01:22:19;2.27;;;1.80;;
6852;SDS011;3465;42.144;24.722;2022-07-12T01:24:50;2.03;;;1.83;;
6852;SDS011;3465;42.144;24.722;2022-07-12T01:27:15;2.90;;;1.90;;
6852;SDS011;3465;42.144;24.722;2022-07-12T01:29:41;2.57;;;1.83;;
6852;SDS011;3465;42.144;24.722;2022-07-12T01:32:06;5.60;;;1.83;;
6852;SDS011;3465;42.144;24.722;2022-07-12T01:35:00;5.57;;;1.90;;
6852;SDS011;3465;42.144;24.722;2022-07-12T01:37:29;2.30;;;1.93;;
6852;SDS011;3465;42.144;24.722;2022-07-12T01:39:58;7.67;;;2.10;;
6852;SDS011;3465;42.144;24.722;2022-07-12T01:42:24;2.07;;;1.70;;
6852;SDS011;3465;42.144;24.722;2022-07-12T01:44:51;3.37;;;1.90;;
6852;SDS011;3465;42.144;24.722;2022-07-12T01:47:18;2.43;;;1.97;;
6852;SDS011;3465;42.144;24.722;2022-07-12T01:49:44;4.37;;;2.13;;
6852;SDS011;3465;42.144;24.722;2022-07-12T01:52:10;2.53;;;2.00;;
6852;SDS011;3465;42.144;24.722;2022-07-12T01:54:36;3.50;;;2.10;;
6852;SDS011;3465;42.144;24.722;2022-07-12T01:57:04;2.47;;;2.03;;
6852;SDS011;3465;42.144;24.722;2022-07-12T01:59:30;2.30;;;2.10;;
6852;SDS011;3465;42.144;24.722;2022-07-12T02:01:56;3.40;;;1.70;;
6852;SDS011;3465;42.144;24.722;2022-07-12T02:04:22;3.17;;;2.00;;
6852;SDS011;3465;42.144;24.722;2022-07-12T02:06:48;1.93;;;1.80;;
6852;SDS011;3465;42.144;24.722;2022-07-12T02:09:14;2.90;;;1.87;;
6852;SDS011;3465;42.144;24.722;2022-07-12T02:11:41;1.97;;;1.77;;
6852;SDS011;3465;42.144;24.722;2022-07-12T02:14:08;3.60;;;1.90;;
6852;SDS011;3465;42.144;24.722;2022-07-12T02:16:34;2.73;;;2.07;;
6852;SDS011;3465;42.144;24.722;2022-07-12T02:18:59;3.00;;;1.70;;
6852;SDS011;3465;42.144;24.722;2022-07-12T02:21:25;2.47;;;1.93;;
6852;SDS011;3465;42.144;24.722;2022-07-12T02:23:51;3.00;;;2.03;;
6852;SDS011;3465;42.144;24.722;2022-07-12T02:26:16;2.80;;;2.13;;
6852;SDS011;3465;42.144;24.722;2022-07-12T02:28:42;4.73;;;2.80;;
6852;SDS011;3465;42.144;24.722;2022-07-12T02:31:11;4.67;;;2.10;;
6852;SDS011;3465;42.144;24.722;2022-07-12T02:33:36;4.53;;;2.20;;
6852;SDS011;3465;42.144;24.722;2022-07-12T02:36:02;2.73;;;1.90;;
6852;SDS011;3465;42.144;24.722;2022-07-12T02:38:28;2.73;;;1.97;;
6852;SDS011;3465;42.144;24.722;2022-07-12T02:40:54;5.17;;;2.10;;
6852;SDS011;3465;42.144;24.722;2022-07-12T02:43:20;5.00;;;2.00;;
6852;SDS011;3465;42.144;24.722;2022-07-12T02:45:49;2.50;;;2.10;;
6852;SDS011;3465;42.144;24.722;2022-07-12T02:48:16;4.93;;;2.40;;
6852;SDS011;3465;42.144;24.722;2022-07-12T02:50:42;4.23;;;2.17;;
6852;SDS011;3465;42.144;24.722;2022-07-12T02:53:08;3.47;;;1.90;;
6852;SDS011;3465;42.144;24.722;2022-07-12T02:55:35;6.10;;;2.30;;
6852;SDS011;3465;42.144;24.722;2022-07-12T02:58:00;5.83;;;2.37;;
6852;SDS011;3465;42.144;24.722;2022-07-12T03:00:27;3.73;;;2.00;;
6852;SDS011;3465;42.144;24.722;2022-07-12T03:02:53;4.90;;;2.50;;
6852;SDS011;3465;42.144;24.722;2022-07-12T03:05:19;6.43;;;2.47;;
6852;SDS011;3465;42.144;24.722;2022-07-12T03:07:44;3.83;;;2.37;;
6852;SDS011;3465;42.144;24.722;2022-07-12T03:10:10;4.00;;;1.97;;
6852;SDS011;3465;42.144;24.722;2022-07-12T03:12:36;3.07;;;2.00;;
6852;SDS011;3465;42.144;24.722;2022-07-12T03:15:01;2.30;;;2.03;;
6852;SDS011;3465;42.144;24.722;2022-07-12T03:17:27;3.00;;;2.10;;
6852;SDS011;3465;42.144;24.722;2022-07-12T03:19:53;3.90;;;2.00;;
6852;SDS011;3465;42.144;24.722;2022-07-12T03:22:18;4.80;;;2.07;;
6852;SDS011;3465;42.144;24.722;2022-07-12T03:24:43;3.57;;;2.20;;
6852;SDS011;3465;42.144;24.722;2022-07-12T03:27:09;4.43;;;2.10;;
6852;SDS011;3465;42.144;24.722;2022-07-12T03:29:35;3.77;;;1.90;;
6852;SDS011;3465;42.144;24.722;2022-07-12T03:32:01;2.60;;;2.00;;
6852;SDS011;3465;42.144;24.722;2022-07-12T03:34:26;6.67;;;2.23;;
6852;SDS011;3465;42.144;24.722;2022-07-12T03:36:52;6.10;;;2.40;;
6852;SDS011;3465;42.144;24.722;2022-07-12T03:39:17;5.67;;;2.23;;
6852;SDS011;3465;42.144;24.722;2022-07-12T03:41:43;7.20;;;2.43;;
6852;SDS011;3465;42.144;24.722;2022-07-12T03:44:08;9.60;;;2.73;;
6852;SDS011;3465;42.144;24.722;2022-07-12T03:46:33;4.40;;;2.50;;
6852;SDS011;3465;42.144;24.722;2022-07-12T03:48:59;2.97;;;1.93;;
6852;SDS011;3465;42.144;24.722;2022-07-12T03:51:25;5.67;;;2.50;;
6852;SDS011;3465;42.144;24.722;2022-07-12T03:53:51;4.93;;;2.10;;
6852;SDS011;3465;42.144;24.722;2022-07-12T03:56:16;5.87;;;2.30;;
6852;SDS011;3465;42.144;24.722;2022-07-12T03:59:00;9.60;;;2.40;;
6852;SDS011;3465;42.144;24.722;2022-07-12T04:01:25;6.07;;;2.40;;
6852;SDS011;3465;42.144;24.722;2022-07-12T04:03:51;5.70;;;2.67;;
6852;SDS011;3465;42.144;24.722;2022-07-12T04:06:16;5.30;;;2.07;;
6852;SDS011;3465;42.144;24.722;2022-07-12T04:08:42;3.50;;;2.20;;
6852;SDS011;3465;42.144;24.722;2022-07-12T04:11:07;3.87;;;2.77;;
6852;SDS011;3465;42.144;24.722;2022-07-12T04:13:32;4.73;;;2.47;;
6852;SDS011;3465;42.144;24.722;2022-07-12T04:15:58;10.50;;;2.40;;
6852;SDS011;3465;42.144;24.722;2022-07-12T04:18:24;5.87;;;2.40;;
6852;SDS011;3465;42.144;24.722;2022-07-12T04:20:49;5.80;;;2.50;;
6852;SDS011;3465;42.144;24.722;2022-07-12T04:23:15;3.10;;;2.17;;
6852;SDS011;3465;42.144;24.722;2022-07-12T04:25:40;7.07;;;2.30;;
6852;SDS011;3465;42.144;24.722;2022-07-12T04:28:06;4.03;;;2.43;;
6852;SDS011;3465;42.144;24.722;2022-07-12T04:30:31;7.87;;;2.10;;
6852;SDS011;3465;42.144;24.722;2022-07-12T04:32:57;5.27;;;2.67;;
6852;SDS011;3465;42.144;24.722;2022-07-12T04:35:22;5.67;;;2.57;;
6852;SDS011;3465;42.144;24.722;2022-07-12T04:37:47;11.53;;;3.03;;
6852;SDS011;3465;42.144;24.722;2022-07-12T04:40:13;11.13;;;3.37;;
6852;SDS011;3465;42.144;24.722;2022-07-12T04:42:38;5.80;;;2.70;;
6852;SDS011;3465;42.144;24.722;2022-07-12T04:45:04;3.33;;;2.17;;
6852;SDS011;3465;42.144;24.722;2022-07-12T04:47:29;3.93;;;2.60;;
6852;SDS011;3465;42.144;24.722;2022-07-12T04:49:58;15.60;;;3.00;;
6852;SDS011;3465;42.144;24.722;2022-07-12T04:52:23;12.60;;;3.07;;
6852;SDS011;3465;42.144;24.722;2022-07-12T04:54:49;8.13;;;2.80;;
6852;SDS011;3465;42.144;24.722;2022-07-12T04:57:14;3.83;;;2.30;;
6852;SDS011;3465;42.144;24.722;2022-07-12T04:59:40;5.00;;;2.47;;
6852;SDS011;3465;42.144;24.722;2022-07-12T05:02:05;13.70;;;3.50;;
6852;SDS011;3465;42.144;24.722;2022-07-12T05:04:31;5.00;;;2.50;;
6852;SDS011;3465;42.144;24.722;2022-07-12T05:06:58;9.47;;;2.40;;
6852;SDS011;3465;42.144;24.722;2022-07-12T05:09:23;4.77;;;2.30;;
6852;SDS011;3465;42.144;24.722;2022-07-12T05:11:49;6.43;;;3.00;;
6852;SDS011;3465;42.144;24.722;2022-07-12T05:14:14;11.30;;;2.60;;
6852;SDS011;3465;42.144;24.722;2022-07-12T05:16:40;3.73;;;2.17;;
6852;SDS011;3465;42.144;24.722;2022-07-12T05:19:05;3.60;;;2.00;;
6852;SDS011;3465;42.144;24.722;2022-07-12T05:21:30;7.25;;;2.28;;
6852;SDS011;3465;42.144;24.722;2022-07-12T05:23:58;5.53;;;2.07;;
6852;SDS011;3465;42.144;24.722;2022-07-12T05:26:24;4.18;;;2.38;;
6852;SDS011;3465;42.144;24.722;2022-07-12T05:28:49;7.93;;;2.67;;
6852;SDS011;3465;42.144;24.722;2022-07-12T05:31:15;5.40;;;2.25;;
6852;SDS011;3465;42.144;24.722;2022-07-12T05:33:40;4.70;;;1.90;;
6852;SDS011;3465;42.144;24.722;2022-07-12T05:36:06;4.68;;;2.08;;
6852;SDS011;3465;42.144;24.722;2022-07-12T05:38:31;6.72;;;1.83;;
6852;SDS011;3465;42.144;24.722;2022-07-12T05:40:57;3.05;;;1.85;;
6852;SDS011;3465;42.144;24.722;2022-07-12T05:43:22;2.70;;;1.92;;
6852;SDS011;3465;42.144;24.722;2022-07-12T05:45:47;8.00;;;2.50;;
6852;SDS011;3465;42.144;24.722;2022-07-12T05:48:13;3.42;;;1.85;;
6852;SDS011;3465;42.144;24.722;2022-07-12T05:50:38;4.68;;;2.08;;
6852;SDS011;3465;42.144;24.722;2022-07-12T05:53:04;11.23;;;2.20;;
6852;SDS011;3465;42.144;24.722;2022-07-12T05:55:48;7.05;;;2.33;;
6852;SDS011;3465;42.144;24.722;2022-07-12T05:58:15;3.50;;;2.40;;
6852;SDS011;3465;42.144;24.722;2022-07-12T06:00:40;7.07;;;1.98;;
6852;SDS011;3465;42.144;24.722;2022-07-12T06:03:06;3.13;;;1.80;;
6852;SDS011;3465;42.144;24.722;2022-07-12T06:05:31;5.68;;;2.00;;
6852;SDS011;3465;42.144;24.722;2022-07-12T06:07:57;4.55;;;2.03;;
6852;SDS011;3465;42.144;24.722;2022-07-12T06:10:22;7.03;;;2.20;;
6852;SDS011;3465;42.144;24.722;2022-07-12T06:12:48;4.60;;;1.98;;
6852;SDS011;3465;42.144;24.722;2022-07-12T06:15:13;7.25;;;2.22;;
6852;SDS011;3465;42.144;24.722;2022-07-12T06:17:39;6.63;;;2.58;;
6852;SDS011;3465;42.144;24.722;2022-07-12T06:20:05;5.93;;;2.40;;
6852;SDS011;3465;42.144;24.722;2022-07-12T06:22:31;3.05;;;2.47;;
6852;SDS011;3465;42.144;24.722;2022-07-12T06:24:56;7.60;;;2.08;;
6852;SDS011;3465;42.144;24.722;2022-07-12T06:27:22;6.68;;;1.98;;
6852;SDS011;3465;42.144;24.722;2022-07-12T06:29:47;2.92;;;1.92;;
6852;SDS011;3465;42.144;24.722;2022-07-12T06:32:16;3.05;;;1.80;;
6852;SDS011;3465;42.144;24.722;2022-07-12T06:34:42;3.05;;;1.70;;
6852;SDS011;3465;42.144;24.722;2022-07-12T06:37:08;5.80;;;1.98;;
6852;SDS011;3465;42.144;24.722;2022-07-12T06:39:34;3.17;;;1.80;;
6852;SDS011;3465;42.144;24.722;2022-07-12T06:42:00;3.78;;;1.80;;
6852;SDS011;3465;42.144;24.722;2022-07-12T06:44:29;4.03;;;1.77;;
6852;SDS011;3465;42.144;24.722;2022-07-12T06:46:55;4.68;;;1.90;;
6852;SDS011;3465;42.144;24.722;2022-07-12T06:49:20;2.47;;;1.60;;
6852;SDS011;3465;42.144;24.722;2022-07-12T06:51:46;3.78;;;1.73;;
6852;SDS011;3465;42.144;24.722;2022-07-12T06:54:11;5.35;;;2.45;;
6852;SDS011;3465;42.144;24.722;2022-07-12T06:56:37;5.85;;;1.95;;
6852;SDS011;3465;42.144;24.722;2022-07-12T06:59:02;5.15;;;1.90;;
6852;SDS011;3465;42.144;24.722;2022-07-12T07:01:27;4.70;;;1.73;;
6852;SDS011;3465;42.144;24.722;2022-07-12T07:03:53;18.20;;;2.92;;
6852;SDS011;3465;42.144;24.722;2022-07-12T07:06:19;8.55;;;1.90;;
6852;SDS011;3465;42.144;24.722;2022-07-12T07:08:44;8.60;;;2.08;;
6852;SDS011;3465;42.144;24.722;2022-07-12T07:11:10;2.83;;;1.60;;
6852;SDS011;3465;42.144;24.722;2022-07-12T07:13:35;5.45;;;1.50;;
6852;SDS011;3465;42.144;24.722;2022-07-12T07:16:01;6.03;;;1.85;;
6852;SDS011;3465;42.144;24.722;2022-07-12T07:18:26;3.47;;;1.50;;
6852;SDS011;3465;42.144;24.722;2022-07-12T07:20:52;4.38;;;1.88;;
6852;SDS011;3465;42.144;24.722;2022-07-12T07:23:17;4.30;;;1.60;;
6852;SDS011;3465;42.144;24.722;2022-07-12T07:25:46;4.68;;;1.60;;
6852;SDS011;3465;42.144;24.722;2022-07-12T07:28:11;2.05;;;1.40;;
6852;SDS011;3465;42.144;24.722;2022-07-12T07:30:37;4.10;;;1.60;;
6852;SDS011;3465;42.144;24.722;2022-07-12T07:35:46;8.40;;;1.70;;
6852;SDS011;3465;42.144;24.722;2022-07-12T07:38:12;4.90;;;1.40;;
6852;SDS011;3465;42.144;24.722;2022-07-12T07:40:37;2.30;;;1.30;;
6852;SDS011;3465;42.144;24.722;2022-07-12T07:43:03;3.00;;;1.40;;
6852;SDS011;3465;42.144;24.722;2022-07-12T07:45:28;4.13;;;1.83;;
6852;SDS011;3465;42.144;24.722;2022-07-12T07:47:54;4.53;;;1.50;;
6852;SDS011;3465;42.144;24.722;2022-07-12T07:50:19;4.05;;;1.27;;
6852;SDS011;3465;42.144;24.722;2022-07-12T07:52:44;5.47;;;1.60;;
6852;SDS011;3465;42.144;24.722;2022-07-12T07:55:10;2.85;;;1.15;;
6852;SDS011;3465;42.144;24.722;2022-07-12T07:57:36;5.47;;;1.42;;
6852;SDS011;3465;42.144;24.722;2022-07-12T08:00:02;5.13;;;1.58;;
6852;SDS011;3465;42.144;24.722;2022-07-12T08:02:28;5.20;;;1.25;;
6852;SDS011;3465;42.144;24.722;2022-07-12T08:04:54;5.80;;;1.20;;
6852;SDS011;3465;42.144;24.722;2022-07-12T08:07:19;7.60;;;1.42;;
6852;SDS011;3465;42.144;24.722;2022-07-12T08:09:44;5.03;;;1.35;;
6852;SDS011;3465;42.144;24.722;2022-07-12T08:12:10;6.45;;;1.10;;
6852;SDS011;3465;42.144;24.722;2022-07-12T08:14:35;5.50;;;1.60;;
6852;SDS011;3465;42.144;24.722;2022-07-12T08:17:01;4.15;;;1.40;;
6852;SDS011;3465;42.144;24.722;2022-07-12T08:19:29;2.38;;;1.10;;
6852;SDS011;3465;42.144;24.722;2022-07-12T08:21:54;3.22;;;1.17;;
6852;SDS011;3465;42.144;24.722;2022-07-12T08:24:19;3.78;;;1.20;;
6852;SDS011;3465;42.144;24.722;2022-07-12T08:26:45;6.63;;;1.20;;
6852;SDS011;3465;42.144;24.722;2022-07-12T08:29:10;9.25;;;1.20;;
6852;SDS011;3465;42.144;24.722;2022-07-12T08:31:36;4.30;;;1.42;;
6852;SDS011;3465;42.144;24.722;2022-07-12T08:34:01;2.17;;;1.33;;
6852;SDS011;3465;42.144;24.722;2022-07-12T08:36:27;2.60;;;1.30;;
6852;SDS011;3465;42.144;24.722;2022-07-12T08:38:52;4.13;;;1.05;;
6852;SDS011;3465;42.144;24.722;2022-07-12T08:41:17;2.28;;;1.02;;
6852;SDS011;3465;42.144;24.722;2022-07-12T08:43:43;9.48;;;2.25;;
6852;SDS011;3465;42.144;24.722;2022-07-12T08:46:09;4.90;;;1.60;;
6852;SDS011;3465;42.144;24.722;2022-07-12T08:48:37;8.10;;;2.00;;
6852;SDS011;3465;42.144;24.722;2022-07-12T08:51:10;3.30;;;1.27;;
6852;SDS011;3465;42.144;24.722;2022-07-12T08:53:37;3.45;;;1.13;;
6852;SDS011;3465;42.144;24.722;2022-07-12T08:56:04;3.00;;;1.20;;
6852;SDS011;3465;42.144;24.722;2022-07-12T08:58:30;5.00;;;1.27;;
6852;SDS011;3465;42.144;24.722;2022-07-12T09:00:56;2.58;;;1.17;;
6852;SDS011;3465;42.144;24.722;2022-07-12T09:03:22;2.38;;;1.38;;
6852;SDS011;3465;42.144;24.722;2022-07-12T09:05:54;4.50;;;1.23;;
6852;SDS011;3465;42.144;24.722;2022-07-12T09:08:24;1.77;;;1.10;;
6852;SDS011;3465;42.144;24.722;2022-07-12T09:13:20;1.73;;;1.20;;
6852;SDS011;3465;42.144;24.722;2022-07-12T09:15:49;6.35;;;1.20;;
6852;SDS011;3465;42.144;24.722;2022-07-12T09:18:15;2.88;;;1.10;;
6852;SDS011;3465;42.144;24.722;2022-07-12T09:20:45;1.35;;;1.00;;
6852;SDS011;3465;42.144;24.722;2022-07-12T09:23:16;2.63;;;1.13;;
6852;SDS011;3465;42.144;24.722;2022-07-12T09:25:45;4.22;;;1.00;;
6852;SDS011;3465;42.144;24.722;2022-07-12T09:28:11;4.68;;;1.40;;
6852;SDS011;3465;42.144;24.722;2022-07-12T09:30:48;3.58;;;1.30;;
6852;SDS011;3465;42.144;24.722;2022-07-12T09:33:17;3.10;;;1.00;;
6852;SDS011;3465;42.144;24.722;2022-07-12T09:36:02;5.43;;;1.20;;
6852;SDS011;3465;42.144;24.722;2022-07-12T09:41:04;3.65;;;1.05;;
6852;SDS011;3465;42.144;24.722;2022-07-12T09:43:30;2.35;;;0.80;;
6852;SDS011;3465;42.144;24.722;2022-07-12T09:45:56;0.73;;;0.73;;
6852;SDS011;3465;42.144;24.722;2022-07-12T09:48:23;2.72;;;1.25;;
6852;SDS011;3465;42.144;24.722;2022-07-12T09:50:51;4.05;;;1.20;;
6852;SDS011;3465;42.144;24.722;2022-07-12T09:53:21;3.38;;;0.93;;
6852;SDS011;3465;42.144;24.722;2022-07-12T09:55:52;3.85;;;1.30;;
6852;SDS011;3465;42.144;24.722;2022-07-12T09:58:29;6.18;;;1.30;;
6852;SDS011;3465;42.144;24.722;2022-07-12T10:00:56;4.65;;;1.30;;
6852;SDS011;3465;42.144;24.722;2022-07-12T10:03:25;1.65;;;0.90;;
6852;SDS011;3465;42.144;24.722;2022-07-12T10:05:54;2.80;;;1.23;;
6852;SDS011;3465;42.144;24.722;2022-07-12T10:08:20;2.25;;;1.00;;
6852;SDS011;3465;42.144;24.722;2022-07-12T10:10:47;4.82;;;1.50;;
6852;SDS011;3465;42.144;24.722;2022-07-12T10:13:14;7.93;;;1.77;;
6852;SDS011;3465;42.144;24.722;2022-07-12T10:15:41;4.80;;;0.95;;
6852;SDS011;3465;42.144;24.722;2022-07-12T10:18:17;2.53;;;1.10;;
6852;SDS011;3465;42.144;24.722;2022-07-12T10:20:48;1.63;;;0.90;;
6852;SDS011;3465;42.144;24.722;2022-07-12T10:25:45;2.53;;;1.00;;
6852;SDS011;3465;42.144;24.722;2022-07-12T10:28:14;2.35;;;1.10;;
6852;SDS011;3465;42.144;24.722;2022-07-12T10:30:43;2.92;;;1.13;;
6852;SDS011;3465;42.144;24.722;2022-07-12T10:35:58;4.18;;;1.30;;
6852;SDS011;3465;42.144;24.722;2022-07-12T10:38:28;2.95;;;1.30;;
6852;SDS011;3465;42.144;24.722;2022-07-12T10:40:54;1.88;;;1.10;;
6852;SDS011;3465;42.144;24.722;2022-07-12T10:43:21;2.72;;;1.20;;
6852;SDS011;3465;42.144;24.722;2022-07-12T10:46:13;4.88;;;1.25;;
6852;SDS011;3465;42.144;24.722;2022-07-12T10:48:44;3.78;;;1.00;;
6852;SDS011;3465;42.144;24.722;2022-07-12T10:51:18;3.50;;;1.30;;
6852;SDS011;3465;42.144;24.722;2022-07-12T10:53:47;2.50;;;1.00;;
6852;SDS011;3465;42.144;24.722;2022-07-12T10:56:24;3.63;;;1.40;;
6852;SDS011;3465;42.144;24.722;2022-07-12T10:58:52;4.18;;;1.35;;
6852;SDS011;3465;42.144;24.722;2022-07-12T11:03:46;5.05;;;1.40;;
6852;SDS011;3465;42.144;24.722;2022-07-12T11:06:16;2.22;;;1.30;;
6852;SDS011;3465;42.144;24.722;2022-07-12T11:11:20;3.53;;;1.10;;
6852;SDS011;3465;42.144;24.722;2022-07-12T11:13:47;3.35;;;1.10;;
6852;SDS011;3465;42.144;24.722;2022-07-12T11:16:13;3.15;;;1.30;;
6852;SDS011;3465;42.144;24.722;2022-07-12T11:18:38;2.95;;;1.25;;
6852;SDS011;3465;42.144;24.722;2022-07-12T11:21:04;3.53;;;1.13;;
6852;SDS011;3465;42.144;24.722;2022-07-12T11:23:30;6.57;;;1.73;;
6852;SDS011;3465;42.144;24.722;2022-07-12T11:25:57;2.13;;;1.30;;
6852;SDS011;3465;42.144;24.722;2022-07-12T11:28:24;1.77;;;1.10;;
6852;SDS011;3465;42.144;24.722;2022-07-12T11:30:50;1.20;;;1.10;;
6852;SDS011;3465;42.144;24.722;2022-07-12T11:33:16;2.80;;;1.20;;
6852;SDS011;3465;42.144;24.722;2022-07-12T11:35:45;2.50;;;1.25;;
6852;SDS011;3465;42.144;24.722;2022-07-12T11:38:11;1.58;;;1.17;;
6852;SDS011;3465;42.144;24.722;2022-07-12T11:40:37;4.07;;;1.40;;
6852;SDS011;3465;42.144;24.722;2022-07-12T11:43:03;1.75;;;1.20;;
6852;SDS011;3465;42.144;24.722;2022-07-12T11:45:33;4.32;;;1.70;;
6852;SDS011;3465;42.144;24.722;2022-07-12T11:48:02;4.10;;;1.02;;
6852;SDS011;3465;42.144;24.722;2022-07-12T11:50:28;4.22;;;1.40;;
6852;SDS011;3465;42.144;24.722;2022-07-12T11:52:55;2.65;;;1.20;;
6852;SDS011;3465;42.144;24.722;2022-07-12T11:55:21;5.80;;;1.67;;
6852;SDS011;3465;42.144;24.722;2022-07-12T11:57:46;4.65;;;1.20;;
6852;SDS011;3465;42.144;24.722;2022-07-12T12:00:13;5.55;;;1.33;;
6852;SDS011;3465;42.144;24.722;2022-07-12T12:02:39;3.00;;;1.55;;
6852;SDS011;3465;42.144;24.722;2022-07-12T12:05:04;8.57;;;1.33;;
6852;SDS011;3465;42.144;24.722;2022-07-12T12:07:30;3.47;;;1.10;;
6852;SDS011;3465;42.144;24.722;2022-07-12T12:09:57;2.63;;;1.65;;
6852;SDS011;3465;42.144;24.722;2022-07-12T12:12:40;3.53;;;1.10;;
6852;SDS011;3465;42.144;24.722;2022-07-12T12:15:27;3.42;;;1.13;;
6852;SDS011;3465;42.144;24.722;2022-07-12T12:18:04;2.35;;;1.25;;
6852;SDS011;3465;42.144;24.722;2022-07-12T12:23:00;2.20;;;1.20;;
6852;SDS011;3465;42.144;24.722;2022-07-12T12:25:27;3.63;;;1.30;;
6852;SDS011;3465;42.144;24.722;2022-07-12T12:27:56;2.17;;;1.30;;
6852;SDS011;3465;42.144;24.722;2022-07-12T12:30:23;6.28;;;1.42;;
6852;SDS011;3465;42.144;24.722;2022-07-12T12:35:21;2.15;;;1.20;;
6852;SDS011;3465;42.144;24.722;2022-07-12T12:37:58;4.93;;;1.40;;
6852;SDS011;3465;42.144;24.722;2022-07-12T12:40:27;4.85;;;1.33;;
6852;SDS011;3465;42.144;24.722;2022-07-12T12:43:05;2.85;;;1.30;;
6852;SDS011;3465;42.144;24.722;2022-07-12T12:45:35;5.32;;;1.38;;
6852;SDS011;3465;42.144;24.722;2022-07-12T12:48:17;6.38;;;1.55;;
6852;SDS011;3465;42.144;24.722;2022-07-12T12:50:46;5.13;;;1.20;;
6852;SDS011;3465;42.144;24.722;2022-07-12T12:53:22;3.58;;;1.50;;
6852;SDS011;3465;42.144;24.722;2022-07-12T12:55:53;6.68;;;1.27;;
6852;SDS011;3465;42.144;24.722;2022-07-12T12:58:20;2.22;;;1.13;;
6852;SDS011;3465;42.144;24.722;2022-07-12T13:00:48;7.40;;;1.20;;
6852;SDS011;3465;42.144;24.722;2022-07-12T13:03:16;5.20;;;1.23;;
6852;SDS011;3465;42.144;24.722;2022-07-12T13:05:42;12.30;;;1.70;;
6852;SDS011;3465;42.144;24.722;2022-07-12T13:08:09;3.40;;;1.20;;
6852;SDS011;3465;42.144;24.722;2022-07-12T13:10:35;3.97;;;1.67;;
6852;SDS011;3465;42.144;24.722;2022-07-12T13:13:01;3.60;;;1.20;;
6852;SDS011;3465;42.144;24.722;2022-07-12T13:15:28;6.80;;;1.58;;
6852;SDS011;3465;42.144;24.722;2022-07-12T13:17:54;3.55;;;1.30;;
6852;SDS011;3465;42.144;24.722;2022-07-12T13:20:20;1.52;;;1.30;;
6852;SDS011;3465;42.144;24.722;2022-07-12T13:22:46;5.60;;;1.30;;
6852;SDS011;3465;42.144;24.722;2022-07-12T13:25:12;2.67;;;1.35;;
6852;SDS011;3465;42.144;24.722;2022-07-12T13:27:39;6.10;;;1.30;;
6852;SDS011;3465;42.144;24.722;2022-07-12T13:30:06;3.35;;;1.42;;
6852;SDS011;3465;42.144;24.722;2022-07-12T13:32:33;4.85;;;1.60;;
6852;SDS011;3465;42.144;24.722;2022-07-12T13:34:59;4.45;;;1.30;;
6852;SDS011;3465;42.144;24.722;2022-07-12T13:37:25;1.75;;;1.30;;
6852;SDS011;3465;42.144;24.722;2022-07-12T13:39:51;3.95;;;2.40;;
6852;SDS011;3465;42.144;24.722;2022-07-12T13:42:36;4.32;;;1.80;;
6852;SDS011;3465;42.144;24.722;2022-07-12T13:45:02;3.67;;;1.60;;
6852;SDS011;3465;42.144;24.722;2022-07-12T13:47:28;4.68;;;1.42;;
6852;SDS011;3465;42.144;24.722;2022-07-12T13:49:54;6.43;;;1.70;;
6852;SDS011;3465;42.144;24.722;2022-07-12T13:52:19;7.15;;;1.75;;
6852;SDS011;3465;42.144;24.722;2022-07-12T13:54:44;5.68;;;1.60;;
6852;SDS011;3465;42.144;24.722;2022-07-12T13:57:11;3.50;;;1.50;;
6852;SDS011;3465;42.144;24.722;2022-07-12T13:59:37;3.85;;;1.65;;
6852;SDS011;3465;42.144;24.722;2022-07-12T14:02:05;2.17;;;1.20;;
6852;SDS011;3465;42.144;24.722;2022-07-12T14:04:31;3.10;;;1.27;;
6852;SDS011;3465;42.144;24.722;2022-07-12T14:06:57;9.40;;;1.90;;
6852;SDS011;3465;42.144;24.722;2022-07-12T14:09:22;5.95;;;1.30;;
6852;SDS011;3465;42.144;24.722;2022-07-12T14:11:48;1.90;;;1.20;;
6852;SDS011;3465;42.144;24.722;2022-07-12T14:14:14;4.85;;;1.30;;
6852;SDS011;3465;42.144;24.722;2022-07-12T14:16:39;5.30;;;1.65;;
6852;SDS011;3465;42.144;24.722;2022-07-12T14:19:05;4.05;;;1.98;;
6852;SDS011;3465;42.144;24.722;2022-07-12T14:21:31;4.70;;;1.30;;
6852;SDS011;3465;42.144;24.722;2022-07-12T14:23:56;4.38;;;1.40;;
6852;SDS011;3465;42.144;24.722;2022-07-12T14:26:26;4.18;;;1.30;;
6852;SDS011;3465;42.144;24.722;2022-07-12T14:28:52;4.63;;;1.58;;
6852;SDS011;3465;42.144;24.722;2022-07-12T14:31:17;2.25;;;1.33;;
6852;SDS011;3465;42.144;24.722;2022-07-12T14:33:43;2.67;;;1.27;;
6852;SDS011;3465;42.144;24.722;2022-07-12T14:36:08;4.75;;;1.40;;
6852;SDS011;3465;42.144;24.722;2022-07-12T14:38:36;4.85;;;1.30;;
6852;SDS011;3465;42.144;24.722;2022-07-12T14:41:02;2.95;;;1.23;;
6852;SDS011;3465;42.144;24.722;2022-07-12T14:43:27;6.75;;;1.30;;
6852;SDS011;3465;42.144;24.722;2022-07-12T14:45:53;4.18;;;1.40;;
6852;SDS011;3465;42.144;24.722;2022-07-12T14:48:18;3.47;;;1.35;;
6852;SDS011;3465;42.144;24.722;2022-07-12T14:50:49;3.22;;;1.30;;
6852;SDS011;3465;42.144;24.722;2022-07-12T14:53:15;7.20;;;1.38;;
6852;SDS011;3465;42.144;24.722;2022-07-12T14:55:40;2.75;;;1.40;;
6852;SDS011;3465;42.144;24.722;2022-07-12T14:58:06;3.40;;;1.52;;
6852;SDS011;3465;42.144;24.722;2022-07-12T15:00:35;3.75;;;1.40;;
6852;SDS011;3465;42.144;24.722;2022-07-12T15:03:01;3.53;;;1.67;;
6852;SDS011;3465;42.144;24.722;2022-07-12T15:05:27;5.95;;;1.55;;
6852;SDS011;3465;42.144;24.722;2022-07-12T15:07:52;3.00;;;1.40;;
6852;SDS011;3465;42.144;24.722;2022-07-12T15:10:18;3.45;;;1.70;;
6852;SDS011;3465;42.144;24.722;2022-07-12T15:12:43;4.78;;;1.35;;
6852;SDS011;3465;42.144;24.722;2022-07-12T15:15:09;2.97;;;1.20;;
6852;SDS011;3465;42.144;24.722;2022-07-12T15:17:34;5.55;;;1.45;;
6852;SDS011;3465;42.144;24.722;2022-07-12T15:20:00;4.10;;;1.40;;
6852;SDS011;3465;42.144;24.722;2022-07-12T15:22:26;7.30;;;1.30;;